This is the latest recevied weather packets stored in our database for station/object SP2WPY-13. If no packets are shown the sender has not sent any weather packets the latest 10 day(s).
| Time | Temp. | Humidity | Pressure | Rain* | Wind** | Luminosity | Snow |
|---|---|---|---|---|---|---|---|
| 1777636868 | 20.56° C | 34% | 1028.9 hPa | - | - | - | - |
| 1777636595 | 21.11° C | 34% | 1028.9 hPa | - | - | - | - |
| 1777636275 | 21.11° C | 35% | 1028.9 hPa | - | - | - | - |
| 1777636000 | 20.56° C | 35% | 1028.8 hPa | - | - | - | - |
| 1777635681 | 21.11° C | 34% | 1028.8 hPa | - | - | - | - |
| 1777635361 | 21.11° C | 34% | 1028.9 hPa | - | - | - | - |
| 1777635088 | 21.11° C | 34% | 1028.8 hPa | - | - | - | - |
| 1777634768 | 21.11° C | 35% | 1028.9 hPa | - | - | - | - |
| 1777634493 | 21.11° C | 35% | 1028.9 hPa | - | - | - | - |
| 1777634174 | 21.11° C | 35% | 1029 hPa | - | - | - | - |
| 1777633900 | 20.56° C | 37% | 1029 hPa | - | - | - | - |
| 1777633580 | 20° C | 37% | 1028.9 hPa | - | - | - | - |
| 1777633261 | 19.44° C | 37% | 1028.9 hPa | - | - | - | - |
| 1777632989 | 19.44° C | 37% | 1029 hPa | - | - | - | - |
| 1777632667 | 19.44° C | 37% | 1029 hPa | - | - | - | - |
| 1777632394 | 19.44° C | 37% | 1028.9 hPa | - | - | - | - |
| 1777632073 | 20° C | 36% | 1028.9 hPa | - | - | - | - |
| 1777631800 | 20.56° C | 34% | 1028.9 hPa | - | - | - | - |
| 1777631481 | 20.56° C | 36% | 1028.9 hPa | - | - | - | - |
| 1777631206 | 21.11° C | 33% | 1029 hPa | - | - | - | - |
| 1777630887 | 22.22° C | 32% | 1028.9 hPa | - | - | - | - |
| 1777630566 | 22.78° C | 31% | 1028.8 hPa | - | - | - | - |
| 1777630293 | 23.33° C | 30% | 1028.7 hPa | - | - | - | - |
| 1777629974 | 23.89° C | 30% | 1028.7 hPa | - | - | - | - |
| 1777629699 | 23.89° C | 30% | 1028.7 hPa | - | - | - | - |
* Rain since midnight (hover to see other rain measurements)
** Current wind speed in m/s (hover to see current wind gust speed)